Terminal Aerodrome Forecast
Issued by NWS

Home | Current Version | Previous Version | Text Only | Print | Product List | Glossary On
Versions: 1 2 3 4 5 6 7 8 9 10 11 12 13 14 15 16 17 18 19 20
000
FTUS43 KIND 281100 RRA
TAFLAF
TAF
KLAF 281145Z 2812/0112 08003KT P6SM SCT120 BKN200
     FM281500 12006KT P6SM OVC100
     FM282100 10007KT P6SM SCT035 OVC070
     FM010000 11005KT 2SM -SN BR OVC015
     FM010400 VRB03KT 1SM -SN BR OVC006
      AMD LTD TO CLD VIS AND WIND TIL 281400=

USA.gov is the U.S. government's official web portal to all federal, state and local government web resources and services.